ADDS TAF Data INFO
IDs: Format: Raw Decoded Include METARs

Data at: 0434 UTC 21 Jan 2018

KOLS 210354Z AUTO 27005KT 10SM FEW050 07/M03 A3001 RMK AO2 SLP133 T00671028

KOLS 210259Z 2103/2124 30008KT P6SM BKN050
  FM210600 17007KT P6SM SKC